Verona, Italy

1:50 AM CET on December 25, 2014 (GMT +0100)
Villafranca Mil | Change Station
CLOSE
Current Station
Airport
Location: Verona,
Elevation: 223 ft
Nearby Weather Stations

Elev 223 ft 45.39 °N, 10.87 °E | Updated 35 minutes ago

Mostly Cloudy
Mostly Cloudy
39 °F
Feels Like 39 °F
N
2
Wind Variable Wind from WNW

Today
High -- | Low -- °F
--% Chance of Precip.
Yesterday
High -- | Low -- °F
Precip. -- in
7:54 AM 4:38 PM
Waxing Crescent, 12% visible
Pressure 30.30 in
Visibility 0.7 miles
Clouds Scattered Clouds 1000 ft
Mostly Cloudy 6000 ft
Dew Point 37 °F
Humidity 93%
Rainfall 0.00 in
Snow Depth Not available.
UV 0 out of 12
Pollen Not available.
Air Quality Not available.
Flu Activity Not available.
METAR LIPX 250015Z 30002KT 1200 R04/P1500U BR SCT010 BKN060 04/03 Q1026

More Conditions Fewer Conditions

Pressure 30.30 in
Visibility 0.7 miles
Clouds Scattered Clouds 1000 ft
Mostly Cloudy 6000 ft
Dew Point 37 °F
Humidity 93%
Rainfall 0.00 in
Snow Depth Not available.
UV 0 out of 12
Pollen Not available.
Air Quality Not available.
Flu Activity Not available.
METAR LIPX 250015Z 30002KT 1200 R04/P1500U BR SCT010 BKN060 04/03 Q1026

More Conditions Fewer Conditions

10-Day Weather Forecast

Almanac

Astronomy

Dec. 25, 2014 Rise Set
Actual Time
Civil Twilight
Nautical Twilight
Astronomical Twilight
Moon
Length of Visible Light
Length of Day
Tomorrow will be .
, % of the Moon is Illuminated

Today's Extremes

Country Highs Country Lows

Community

WunderPhotos

Upload Photos

1,780,194 photos uploaded!

WunderBlogs® & News

Nearby

Air Quality

  Air Quality AQ Index Pollutant
Not available.

Snow Depth

Station Depth Elevation

Earthquake Activity

City Distance Mag. Time & Date
Minimum magnitude displayed is 2.5.

Coastal Water Temperatures

Place Temperature

Nearby Weather Stations